sensor_id;sensor_type;location;lat;lon;timestamp;P1;durP1;ratioP1;P2;durP2;ratioP2
26686;SDS011;14298;50.900;4.648;2022-09-27T00:00:27;11.43;;;3.40;;
26686;SDS011;14298;50.900;4.648;2022-09-27T00:02:55;10.63;;;2.20;;
26686;SDS011;14298;50.900;4.648;2022-09-27T00:05:24;9.37;;;3.00;;
26686;SDS011;14298;50.900;4.648;2022-09-27T00:07:52;19.03;;;3.03;;
26686;SDS011;14298;50.900;4.648;2022-09-27T00:10:20;7.00;;;2.20;;
26686;SDS011;14298;50.900;4.648;2022-09-27T00:12:49;9.27;;;2.73;;
26686;SDS011;14298;50.900;4.648;2022-09-27T00:15:18;7.77;;;2.20;;
26686;SDS011;14298;50.900;4.648;2022-09-27T00:17:46;10.87;;;2.23;;
26686;SDS011;14298;50.900;4.648;2022-09-27T00:20:17;11.23;;;3.27;;
26686;SDS011;14298;50.900;4.648;2022-09-27T00:22:47;11.07;;;2.70;;
26686;SDS011;14298;50.900;4.648;2022-09-27T00:25:16;9.70;;;3.07;;
26686;SDS011;14298;50.900;4.648;2022-09-27T00:27:44;12.50;;;3.40;;
26686;SDS011;14298;50.900;4.648;2022-09-27T00:30:13;13.97;;;3.70;;
26686;SDS011;14298;50.900;4.648;2022-09-27T00:32:41;16.27;;;4.53;;
26686;SDS011;14298;50.900;4.648;2022-09-27T00:35:09;17.27;;;5.97;;
26686;SDS011;14298;50.900;4.648;2022-09-27T00:37:38;19.90;;;6.07;;
26686;SDS011;14298;50.900;4.648;2022-09-27T00:40:06;22.47;;;6.70;;
26686;SDS011;14298;50.900;4.648;2022-09-27T00:42:35;14.70;;;5.73;;
26686;SDS011;14298;50.900;4.648;2022-09-27T00:45:05;16.43;;;5.53;;
26686;SDS011;14298;50.900;4.648;2022-09-27T00:47:38;12.47;;;4.63;;
26686;SDS011;14298;50.900;4.648;2022-09-27T00:50:09;20.30;;;5.63;;
26686;SDS011;14298;50.900;4.648;2022-09-27T00:52:41;15.27;;;4.00;;
26686;SDS011;14298;50.900;4.648;2022-09-27T00:55:12;19.40;;;4.77;;
26686;SDS011;14298;50.900;4.648;2022-09-27T00:57:44;11.33;;;3.57;;
26686;SDS011;14298;50.900;4.648;2022-09-27T01:00:14;14.70;;;4.57;;
26686;SDS011;14298;50.900;4.648;2022-09-27T01:02:47;14.60;;;4.17;;
26686;SDS011;14298;50.900;4.648;2022-09-27T01:05:17;13.67;;;4.60;;
26686;SDS011;14298;50.900;4.648;2022-09-27T01:07:47;16.87;;;4.10;;
26686;SDS011;14298;50.900;4.648;2022-09-27T01:10:15;8.60;;;3.40;;
26686;SDS011;14298;50.900;4.648;2022-09-27T01:15:40;12.47;;;4.30;;
26686;SDS011;14298;50.900;4.648;2022-09-27T01:18:21;11.40;;;3.33;;
26686;SDS011;14298;50.900;4.648;2022-09-27T01:32:07;10.97;;;3.80;;
26686;SDS011;14298;50.900;4.648;2022-09-27T01:34:56;7.07;;;3.27;;
26686;SDS011;14298;50.900;4.648;2022-09-27T01:37:34;13.53;;;3.47;;
26686;SDS011;14298;50.900;4.648;2022-09-27T01:42:40;8.83;;;3.47;;
26686;SDS011;14298;50.900;4.648;2022-09-27T01:45:20;7.27;;;2.47;;
26686;SDS011;14298;50.900;4.648;2022-09-27T01:47:54;5.77;;;2.10;;
26686;SDS011;14298;50.900;4.648;2022-09-27T01:50:26;7.67;;;2.77;;
26686;SDS011;14298;50.900;4.648;2022-09-27T01:53:06;7.63;;;2.50;;
26686;SDS011;14298;50.900;4.648;2022-09-27T01:55:36;6.10;;;1.93;;
26686;SDS011;14298;50.900;4.648;2022-09-27T01:58:09;4.30;;;1.40;;
26686;SDS011;14298;50.900;4.648;2022-09-27T02:00:44;3.20;;;1.60;;
26686;SDS011;14298;50.900;4.648;2022-09-27T02:03:15;3.17;;;1.23;;
26686;SDS011;14298;50.900;4.648;2022-09-27T02:05:46;7.53;;;1.50;;
26686;SDS011;14298;50.900;4.648;2022-09-27T02:08:35;4.57;;;1.57;;
26686;SDS011;14298;50.900;4.648;2022-09-27T02:11:11;6.17;;;1.63;;
26686;SDS011;14298;50.900;4.648;2022-09-27T02:13:52;8.83;;;2.37;;
26686;SDS011;14298;50.900;4.648;2022-09-27T02:19:19;12.67;;;3.10;;
26686;SDS011;14298;50.900;4.648;2022-09-27T02:22:03;6.63;;;2.30;;
26686;SDS011;14298;50.900;4.648;2022-09-27T02:24:49;15.70;;;3.17;;
26686;SDS011;14298;50.900;4.648;2022-09-27T02:27:29;9.17;;;2.63;;
26686;SDS011;14298;50.900;4.648;2022-09-27T02:30:04;8.33;;;2.53;;
26686;SDS011;14298;50.900;4.648;2022-09-27T02:32:34;17.73;;;3.07;;
26686;SDS011;14298;50.900;4.648;2022-09-27T02:35:04;11.70;;;3.43;;
26686;SDS011;14298;50.900;4.648;2022-09-27T02:37:34;11.43;;;3.17;;
26686;SDS011;14298;50.900;4.648;2022-09-27T02:42:50;10.67;;;3.50;;
26686;SDS011;14298;50.900;4.648;2022-09-27T02:45:19;6.67;;;2.90;;
26686;SDS011;14298;50.900;4.648;2022-09-27T02:50:51;10.37;;;2.70;;
26686;SDS011;14298;50.900;4.648;2022-09-27T02:56:09;4.80;;;1.87;;
26686;SDS011;14298;50.900;4.648;2022-09-27T03:04:19;7.87;;;2.90;;
26686;SDS011;14298;50.900;4.648;2022-09-27T03:06:49;12.70;;;3.33;;
26686;SDS011;14298;50.900;4.648;2022-09-27T03:09:19;6.50;;;2.40;;
26686;SDS011;14298;50.900;4.648;2022-09-27T03:11:50;9.10;;;2.70;;
26686;SDS011;14298;50.900;4.648;2022-09-27T03:14:19;10.53;;;2.80;;
26686;SDS011;14298;50.900;4.648;2022-09-27T03:16:47;6.93;;;2.37;;
26686;SDS011;14298;50.900;4.648;2022-09-27T03:19:16;12.33;;;2.73;;
26686;SDS011;14298;50.900;4.648;2022-09-27T03:21:44;9.67;;;3.13;;
26686;SDS011;14298;50.900;4.648;2022-09-27T03:24:12;6.67;;;2.70;;
26686;SDS011;14298;50.900;4.648;2022-09-27T03:26:40;10.03;;;2.83;;
26686;SDS011;14298;50.900;4.648;2022-09-27T03:29:09;6.03;;;2.40;;
26686;SDS011;14298;50.900;4.648;2022-09-27T03:31:37;4.47;;;2.17;;
26686;SDS011;14298;50.900;4.648;2022-09-27T03:34:06;10.77;;;2.37;;
26686;SDS011;14298;50.900;4.648;2022-09-27T03:36:34;4.33;;;1.73;;
26686;SDS011;14298;50.900;4.648;2022-09-27T03:39:02;6.23;;;2.57;;
26686;SDS011;14298;50.900;4.648;2022-09-27T03:41:31;9.00;;;3.00;;
26686;SDS011;14298;50.900;4.648;2022-09-27T03:43:59;8.03;;;2.17;;
26686;SDS011;14298;50.900;4.648;2022-09-27T03:46:28;7.50;;;2.20;;
26686;SDS011;14298;50.900;4.648;2022-09-27T03:48:56;6.43;;;2.33;;
26686;SDS011;14298;50.900;4.648;2022-09-27T03:51:24;9.27;;;2.50;;
26686;SDS011;14298;50.900;4.648;2022-09-27T03:53:53;8.30;;;2.37;;
26686;SDS011;14298;50.900;4.648;2022-09-27T03:56:22;5.50;;;1.97;;
26686;SDS011;14298;50.900;4.648;2022-09-27T03:58:50;5.50;;;1.80;;
26686;SDS011;14298;50.900;4.648;2022-09-27T04:01:19;10.67;;;2.87;;
26686;SDS011;14298;50.900;4.648;2022-09-27T04:03:47;7.93;;;2.97;;
26686;SDS011;14298;50.900;4.648;2022-09-27T04:06:15;8.10;;;2.40;;
26686;SDS011;14298;50.900;4.648;2022-09-27T04:08:44;7.33;;;2.63;;
26686;SDS011;14298;50.900;4.648;2022-09-27T04:11:13;5.37;;;2.00;;
26686;SDS011;14298;50.900;4.648;2022-09-27T04:13:41;6.90;;;2.70;;
26686;SDS011;14298;50.900;4.648;2022-09-27T04:16:10;6.30;;;2.10;;
26686;SDS011;14298;50.900;4.648;2022-09-27T04:18:38;8.03;;;2.70;;
26686;SDS011;14298;50.900;4.648;2022-09-27T04:21:06;7.07;;;3.07;;
26686;SDS011;14298;50.900;4.648;2022-09-27T04:23:35;9.33;;;2.77;;
26686;SDS011;14298;50.900;4.648;2022-09-27T04:26:03;7.10;;;2.50;;
26686;SDS011;14298;50.900;4.648;2022-09-27T04:28:32;10.90;;;3.97;;
26686;SDS011;14298;50.900;4.648;2022-09-27T04:31:01;10.10;;;3.27;;
26686;SDS011;14298;50.900;4.648;2022-09-27T04:33:29;8.10;;;3.00;;
26686;SDS011;14298;50.900;4.648;2022-09-27T04:35:57;4.80;;;2.87;;
26686;SDS011;14298;50.900;4.648;2022-09-27T04:38:44;11.53;;;3.90;;
26686;SDS011;14298;50.900;4.648;2022-09-27T04:41:13;8.83;;;4.60;;
26686;SDS011;14298;50.900;4.648;2022-09-27T04:43:41;13.93;;;4.67;;
26686;SDS011;14298;50.900;4.648;2022-09-27T04:46:10;12.73;;;4.80;;
26686;SDS011;14298;50.900;4.648;2022-09-27T04:48:39;9.93;;;4.67;;
26686;SDS011;14298;50.900;4.648;2022-09-27T04:51:08;9.60;;;4.07;;
26686;SDS011;14298;50.900;4.648;2022-09-27T04:53:37;13.40;;;4.90;;
26686;SDS011;14298;50.900;4.648;2022-09-27T04:56:05;13.50;;;5.20;;
26686;SDS011;14298;50.900;4.648;2022-09-27T04:58:34;10.83;;;5.00;;
26686;SDS011;14298;50.900;4.648;2022-09-27T05:01:02;10.13;;;4.53;;
26686;SDS011;14298;50.900;4.648;2022-09-27T05:03:31;8.13;;;3.53;;
26686;SDS011;14298;50.900;4.648;2022-09-27T05:05:59;9.57;;;4.20;;
26686;SDS011;14298;50.900;4.648;2022-09-27T05:08:28;20.03;;;5.93;;
26686;SDS011;14298;50.900;4.648;2022-09-27T05:10:57;14.13;;;5.60;;
26686;SDS011;14298;50.900;4.648;2022-09-27T05:13:26;16.07;;;5.90;;
26686;SDS011;14298;50.900;4.648;2022-09-27T05:15:54;11.57;;;4.40;;
26686;SDS011;14298;50.900;4.648;2022-09-27T05:18:24;17.90;;;6.50;;
26686;SDS011;14298;50.900;4.648;2022-09-27T05:20:52;11.17;;;5.07;;
26686;SDS011;14298;50.900;4.648;2022-09-27T05:23:22;14.50;;;5.10;;
26686;SDS011;14298;50.900;4.648;2022-09-27T05:25:51;13.53;;;6.30;;
26686;SDS011;14298;50.900;4.648;2022-09-27T05:31:09;13.30;;;6.30;;
26686;SDS011;14298;50.900;4.648;2022-09-27T05:33:39;17.83;;;7.93;;
26686;SDS011;14298;50.900;4.648;2022-09-27T05:36:07;19.60;;;8.87;;
26686;SDS011;14298;50.900;4.648;2022-09-27T05:38:36;31.07;;;11.23;;
26686;SDS011;14298;50.900;4.648;2022-09-27T05:41:05;38.83;;;12.93;;
26686;SDS011;14298;50.900;4.648;2022-09-27T05:43:34;23.83;;;10.63;;
26686;SDS011;14298;50.900;4.648;2022-09-27T05:46:02;31.20;;;12.23;;
26686;SDS011;14298;50.900;4.648;2022-09-27T05:48:31;22.23;;;11.30;;
26686;SDS011;14298;50.900;4.648;2022-09-27T05:50:59;29.17;;;13.07;;
26686;SDS011;14298;50.900;4.648;2022-09-27T05:53:27;20.47;;;12.47;;
26686;SDS011;14298;50.900;4.648;2022-09-27T05:55:59;24.53;;;13.17;;
26686;SDS011;14298;50.900;4.648;2022-09-27T05:58:30;36.43;;;15.47;;
26686;SDS011;14298;50.900;4.648;2022-09-27T06:00:59;53.70;;;17.67;;
26686;SDS011;14298;50.900;4.648;2022-09-27T06:03:28;23.83;;;13.70;;
26686;SDS011;14298;50.900;4.648;2022-09-27T06:05:56;22.43;;;12.37;;
26686;SDS011;14298;50.900;4.648;2022-09-27T06:08:31;32.70;;;16.33;;
26686;SDS011;14298;50.900;4.648;2022-09-27T06:11:04;28.20;;;16.67;;
26686;SDS011;14298;50.900;4.648;2022-09-27T06:13:34;32.60;;;16.97;;
26686;SDS011;14298;50.900;4.648;2022-09-27T06:16:03;19.90;;;12.70;;
26686;SDS011;14298;50.900;4.648;2022-09-27T06:18:32;37.50;;;17.10;;
26686;SDS011;14298;50.900;4.648;2022-09-27T06:21:01;20.30;;;12.50;;
26686;SDS011;14298;50.900;4.648;2022-09-27T06:23:31;21.60;;;11.97;;
26686;SDS011;14298;50.900;4.648;2022-09-27T06:26:00;19.87;;;12.30;;
26686;SDS011;14298;50.900;4.648;2022-09-27T06:28:31;23.00;;;12.73;;
26686;SDS011;14298;50.900;4.648;2022-09-27T06:31:04;19.13;;;12.90;;
26686;SDS011;14298;50.900;4.648;2022-09-27T06:33:35;24.33;;;12.50;;
26686;SDS011;14298;50.900;4.648;2022-09-27T06:36:04;16.57;;;10.80;;
26686;SDS011;14298;50.900;4.648;2022-09-27T06:38:34;19.30;;;11.90;;
26686;SDS011;14298;50.900;4.648;2022-09-27T06:41:03;25.37;;;13.40;;
26686;SDS011;14298;50.900;4.648;2022-09-27T06:43:34;18.40;;;12.63;;
26686;SDS011;14298;50.900;4.648;2022-09-27T06:46:03;21.27;;;12.90;;
26686;SDS011;14298;50.900;4.648;2022-09-27T06:48:31;16.70;;;10.70;;
26686;SDS011;14298;50.900;4.648;2022-09-27T06:51:02;30.60;;;14.50;;
26686;SDS011;14298;50.900;4.648;2022-09-27T06:53:30;26.90;;;13.00;;
26686;SDS011;14298;50.900;4.648;2022-09-27T06:55:59;15.93;;;10.43;;
26686;SDS011;14298;50.900;4.648;2022-09-27T06:58:28;22.70;;;12.90;;
26686;SDS011;14298;50.900;4.648;2022-09-27T07:01:14;11.97;;;9.40;;
26686;SDS011;14298;50.900;4.648;2022-09-27T07:03:48;24.33;;;11.33;;
26686;SDS011;14298;50.900;4.648;2022-09-27T07:06:16;15.87;;;8.30;;
26686;SDS011;14298;50.900;4.648;2022-09-27T07:08:50;24.13;;;11.87;;
26686;SDS011;14298;50.900;4.648;2022-09-27T07:11:19;15.33;;;9.70;;
26686;SDS011;14298;50.900;4.648;2022-09-27T07:13:49;12.87;;;9.23;;
26686;SDS011;14298;50.900;4.648;2022-09-27T07:16:17;14.13;;;9.27;;
26686;SDS011;14298;50.900;4.648;2022-09-27T07:18:46;13.33;;;9.00;;
26686;SDS011;14298;50.900;4.648;2022-09-27T07:21:16;17.60;;;9.03;;
26686;SDS011;14298;50.900;4.648;2022-09-27T07:23:44;19.40;;;10.03;;
26686;SDS011;14298;50.900;4.648;2022-09-27T07:26:12;13.27;;;9.67;;
26686;SDS011;14298;50.900;4.648;2022-09-27T07:28:41;14.17;;;9.47;;
26686;SDS011;14298;50.900;4.648;2022-09-27T07:31:10;15.10;;;9.10;;
26686;SDS011;14298;50.900;4.648;2022-09-27T07:33:39;15.87;;;9.90;;
26686;SDS011;14298;50.900;4.648;2022-09-27T07:36:08;14.63;;;9.90;;
26686;SDS011;14298;50.900;4.648;2022-09-27T07:38:37;15.87;;;11.00;;
26686;SDS011;14298;50.900;4.648;2022-09-27T07:41:06;16.60;;;10.73;;
26686;SDS011;14298;50.900;4.648;2022-09-27T07:43:36;14.87;;;9.87;;
26686;SDS011;14298;50.900;4.648;2022-09-27T07:46:05;23.67;;;12.73;;
26686;SDS011;14298;50.900;4.648;2022-09-27T07:48:34;10.83;;;8.33;;
26686;SDS011;14298;50.900;4.648;2022-09-27T07:51:02;15.10;;;10.90;;
26686;SDS011;14298;50.900;4.648;2022-09-27T07:53:32;17.60;;;11.03;;
26686;SDS011;14298;50.900;4.648;2022-09-27T07:56:01;9.97;;;7.53;;
26686;SDS011;14298;50.900;4.648;2022-09-27T07:58:29;15.03;;;9.93;;
26686;SDS011;14298;50.900;4.648;2022-09-27T08:00:58;20.77;;;11.90;;
26686;SDS011;14298;50.900;4.648;2022-09-27T08:03:28;11.63;;;9.37;;
26686;SDS011;14298;50.900;4.648;2022-09-27T08:06:00;9.87;;;6.10;;
26686;SDS011;14298;50.900;4.648;2022-09-27T08:08:29;10.20;;;7.60;;
26686;SDS011;14298;50.900;4.648;2022-09-27T08:10:58;10.10;;;6.43;;
26686;SDS011;14298;50.900;4.648;2022-09-27T08:13:26;8.87;;;6.17;;
26686;SDS011;14298;50.900;4.648;2022-09-27T08:15:59;8.70;;;6.37;;
26686;SDS011;14298;50.900;4.648;2022-09-27T08:18:27;8.20;;;5.17;;
26686;SDS011;14298;50.900;4.648;2022-09-27T08:20:56;8.90;;;7.43;;
26686;SDS011;14298;50.900;4.648;2022-09-27T08:23:25;10.73;;;6.97;;
26686;SDS011;14298;50.900;4.648;2022-09-27T08:25:53;7.50;;;5.67;;
26686;SDS011;14298;50.900;4.648;2022-09-27T08:28:26;12.17;;;8.00;;
26686;SDS011;14298;50.900;4.648;2022-09-27T08:30:56;7.97;;;5.97;;
26686;SDS011;14298;50.900;4.648;2022-09-27T08:33:25;8.40;;;6.20;;
26686;SDS011;14298;50.900;4.648;2022-09-27T08:35:53;13.77;;;7.10;;
26686;SDS011;14298;50.900;4.648;2022-09-27T08:38:21;6.93;;;5.40;;
26686;SDS011;14298;50.900;4.648;2022-09-27T08:48:30;9.50;;;5.50;;
26686;SDS011;14298;50.900;4.648;2022-09-27T08:51:01;8.33;;;4.70;;
26686;SDS011;14298;50.900;4.648;2022-09-27T08:53:32;10.60;;;5.77;;
26686;SDS011;14298;50.900;4.648;2022-09-27T08:56:02;5.20;;;3.93;;
26686;SDS011;14298;50.900;4.648;2022-09-27T08:58:43;8.67;;;5.33;;
26686;SDS011;14298;50.900;4.648;2022-09-27T09:01:28;10.20;;;5.57;;
26686;SDS011;14298;50.900;4.648;2022-09-27T09:03:57;8.80;;;5.43;;
26686;SDS011;14298;50.900;4.648;2022-09-27T09:06:38;6.47;;;5.40;;
26686;SDS011;14298;50.900;4.648;2022-09-27T09:11:47;4.90;;;4.17;;
26686;SDS011;14298;50.900;4.648;2022-09-27T09:14:49;7.57;;;4.23;;
26686;SDS011;14298;50.900;4.648;2022-09-27T09:17:27;7.23;;;4.10;;
26686;SDS011;14298;50.900;4.648;2022-09-27T09:20:19;6.67;;;4.37;;
26686;SDS011;14298;50.900;4.648;2022-09-27T09:30:45;8.83;;;4.13;;
26686;SDS011;14298;50.900;4.648;2022-09-27T09:33:31;5.70;;;3.70;;
26686;SDS011;14298;50.900;4.648;2022-09-27T09:36:22;11.80;;;4.00;;
26686;SDS011;14298;50.900;4.648;2022-09-27T09:38:57;5.97;;;3.80;;
26686;SDS011;14298;50.900;4.648;2022-09-27T09:41:29;11.60;;;4.17;;
26686;SDS011;14298;50.900;4.648;2022-09-27T09:44:04;11.90;;;4.50;;
26686;SDS011;14298;50.900;4.648;2022-09-27T09:46:49;8.30;;;4.13;;
26686;SDS011;14298;50.900;4.648;2022-09-27T09:51:55;3.90;;;3.00;;
26686;SDS011;14298;50.900;4.648;2022-09-27T09:54:45;9.83;;;4.10;;
26686;SDS011;14298;50.900;4.648;2022-09-27T09:57:11;11.07;;;4.43;;
26686;SDS011;14298;50.900;4.648;2022-09-27T09:59:48;7.40;;;4.00;;
26686;SDS011;14298;50.900;4.648;2022-09-27T10:02:31;7.57;;;3.90;;
26686;SDS011;14298;50.900;4.648;2022-09-27T10:05:01;7.10;;;4.07;;
26686;SDS011;14298;50.900;4.648;2022-09-27T10:07:31;7.33;;;3.13;;
26686;SDS011;14298;50.900;4.648;2022-09-27T10:10:02;12.83;;;4.63;;
26686;SDS011;14298;50.900;4.648;2022-09-27T10:12:33;9.93;;;3.00;;
26686;SDS011;14298;50.900;4.648;2022-09-27T10:15:03;6.83;;;2.87;;
26686;SDS011;14298;50.900;4.648;2022-09-27T10:17:38;8.30;;;3.60;;
26686;SDS011;14298;50.900;4.648;2022-09-27T10:20:04;9.27;;;3.60;;
26686;SDS011;14298;50.900;4.648;2022-09-27T10:22:38;8.23;;;3.67;;
26686;SDS011;14298;50.900;4.648;2022-09-27T10:25:08;10.23;;;3.30;;
26686;SDS011;14298;50.900;4.648;2022-09-27T10:27:42;9.17;;;3.47;;
26686;SDS011;14298;50.900;4.648;2022-09-27T10:30:26;7.27;;;2.90;;
26686;SDS011;14298;50.900;4.648;2022-09-27T10:33:02;10.30;;;3.33;;
26686;SDS011;14298;50.900;4.648;2022-09-27T10:40:53;9.57;;;3.50;;
26686;SDS011;14298;50.900;4.648;2022-09-27T10:43:25;8.23;;;3.03;;
26686;SDS011;14298;50.900;4.648;2022-09-27T10:48:39;9.23;;;3.33;;
26686;SDS011;14298;50.900;4.648;2022-09-27T10:51:27;11.87;;;3.33;;
26686;SDS011;14298;50.900;4.648;2022-09-27T10:53:52;9.93;;;3.53;;
26686;SDS011;14298;50.900;4.648;2022-09-27T10:56:23;5.67;;;3.03;;
26686;SDS011;14298;50.900;4.648;2022-09-27T10:58:59;8.17;;;2.97;;
26686;SDS011;14298;50.900;4.648;2022-09-27T11:01:42;11.47;;;2.87;;
26686;SDS011;14298;50.900;4.648;2022-09-27T11:04:36;7.67;;;2.73;;
26686;SDS011;14298;50.900;4.648;2022-09-27T11:06:48;9.37;;;2.40;;
26686;SDS011;14298;50.900;4.648;2022-09-27T11:09:23;7.67;;;2.70;;
26686;SDS011;14298;50.900;4.648;2022-09-27T11:12:11;5.63;;;2.10;;
26686;SDS011;14298;50.900;4.648;2022-09-27T11:14:36;5.07;;;2.40;;
26686;SDS011;14298;50.900;4.648;2022-09-27T11:17:09;9.27;;;2.30;;
26686;SDS011;14298;50.900;4.648;2022-09-27T11:19:57;10.90;;;2.70;;
26686;SDS011;14298;50.900;4.648;2022-09-27T11:25:33;7.17;;;2.20;;
26686;SDS011;14298;50.900;4.648;2022-09-27T11:30:55;8.43;;;2.53;;
26686;SDS011;14298;50.900;4.648;2022-09-27T11:39:13;3.37;;;1.03;;
26686;SDS011;14298;50.900;4.648;2022-09-27T11:53:23;3.27;;;0.80;;
26686;SDS011;14298;50.900;4.648;2022-09-27T11:55:54;7.07;;;1.13;;
26686;SDS011;14298;50.900;4.648;2022-09-27T11:58:30;4.00;;;1.63;;
26686;SDS011;14298;50.900;4.648;2022-09-27T12:06:47;4.17;;;1.10;;
26686;SDS011;14298;50.900;4.648;2022-09-27T12:09:22;4.67;;;1.30;;
26686;SDS011;14298;50.900;4.648;2022-09-27T12:11:58;4.70;;;1.10;;
26686;SDS011;14298;50.900;4.648;2022-09-27T12:17:19;4.00;;;1.00;;
26686;SDS011;14298;50.900;4.648;2022-09-27T12:19:46;3.60;;;0.80;;
26686;SDS011;14298;50.900;4.648;2022-09-27T12:22:21;2.90;;;0.90;;
26686;SDS011;14298;50.900;4.648;2022-09-27T12:24:57;2.20;;;0.87;;
26686;SDS011;14298;50.900;4.648;2022-09-27T12:27:33;4.63;;;0.80;;
26686;SDS011;14298;50.900;4.648;2022-09-27T12:30:04;5.37;;;1.10;;
26686;SDS011;14298;50.900;4.648;2022-09-27T12:32:40;3.83;;;0.87;;
26686;SDS011;14298;50.900;4.648;2022-09-27T12:35:20;2.60;;;0.70;;
26686;SDS011;14298;50.900;4.648;2022-09-27T12:37:56;4.33;;;0.83;;
26686;SDS011;14298;50.900;4.648;2022-09-27T12:43:21;2.43;;;1.00;;
26686;SDS011;14298;50.900;4.648;2022-09-27T12:51:40;3.73;;;1.10;;
26686;SDS011;14298;50.900;4.648;2022-09-27T13:05:49;3.77;;;1.10;;
26686;SDS011;14298;50.900;4.648;2022-09-27T13:14:25;4.80;;;1.40;;
26686;SDS011;14298;50.900;4.648;2022-09-27T13:16:49;7.13;;;1.80;;
26686;SDS011;14298;50.900;4.648;2022-09-27T13:22:34;6.17;;;1.70;;
26686;SDS011;14298;50.900;4.648;2022-09-27T13:24:40;6.03;;;1.37;;
26686;SDS011;14298;50.900;4.648;2022-09-27T13:33:19;3.97;;;1.50;;
26686;SDS011;14298;50.900;4.648;2022-09-27T13:35:20;7.53;;;1.50;;
26686;SDS011;14298;50.900;4.648;2022-09-27T13:37:58;4.57;;;1.30;;
26686;SDS011;14298;50.900;4.648;2022-09-27T13:40:28;3.83;;;1.10;;
26686;SDS011;14298;50.900;4.648;2022-09-27T13:45:47;4.53;;;1.17;;
26686;SDS011;14298;50.900;4.648;2022-09-27T13:48:26;4.17;;;1.30;;
26686;SDS011;14298;50.900;4.648;2022-09-27T13:54:03;2.97;;;0.90;;
26686;SDS011;14298;50.900;4.648;2022-09-27T13:59:16;4.83;;;0.90;;
26686;SDS011;14298;50.900;4.648;2022-09-27T14:01:44;5.37;;;1.10;;
26686;SDS011;14298;50.900;4.648;2022-09-27T14:04:23;4.67;;;1.00;;
26686;SDS011;14298;50.900;4.648;2022-09-27T14:06:58;3.73;;;0.77;;
26686;SDS011;14298;50.900;4.648;2022-09-27T14:09:33;3.57;;;1.20;;
26686;SDS011;14298;50.900;4.648;2022-09-27T14:12:07;4.83;;;1.00;;
26686;SDS011;14298;50.900;4.648;2022-09-27T14:14:37;4.07;;;1.10;;
26686;SDS011;14298;50.900;4.648;2022-09-27T14:17:08;3.07;;;0.90;;
26686;SDS011;14298;50.900;4.648;2022-09-27T14:19:38;4.50;;;1.10;;
26686;SDS011;14298;50.900;4.648;2022-09-27T14:22:13;4.40;;;1.17;;
26686;SDS011;14298;50.900;4.648;2022-09-27T14:24:45;7.10;;;1.30;;
26686;SDS011;14298;50.900;4.648;2022-09-27T14:27:21;5.77;;;0.87;;
26686;SDS011;14298;50.900;4.648;2022-09-27T14:29:58;4.87;;;1.20;;
26686;SDS011;14298;50.900;4.648;2022-09-27T14:32:29;2.63;;;0.83;;
26686;SDS011;14298;50.900;4.648;2022-09-27T14:35:12;3.17;;;1.17;;
26686;SDS011;14298;50.900;4.648;2022-09-27T14:41:03;7.50;;;1.30;;
26686;SDS011;14298;50.900;4.648;2022-09-27T14:43:34;2.63;;;1.10;;
26686;SDS011;14298;50.900;4.648;2022-09-27T14:46:05;4.17;;;1.00;;
26686;SDS011;14298;50.900;4.648;2022-09-27T14:48:36;6.57;;;1.30;;
26686;SDS011;14298;50.900;4.648;2022-09-27T14:53:46;5.40;;;1.60;;
26686;SDS011;14298;50.900;4.648;2022-09-27T14:56:17;4.80;;;1.33;;
26686;SDS011;14298;50.900;4.648;2022-09-27T14:58:49;6.57;;;1.40;;
26686;SDS011;14298;50.900;4.648;2022-09-27T15:01:21;3.93;;;1.13;;
26686;SDS011;14298;50.900;4.648;2022-09-27T15:03:49;5.43;;;1.50;;
26686;SDS011;14298;50.900;4.648;2022-09-27T15:06:19;8.87;;;1.50;;
26686;SDS011;14298;50.900;4.648;2022-09-27T15:08:47;7.47;;;1.80;;
26686;SDS011;14298;50.900;4.648;2022-09-27T15:11:17;4.30;;;1.23;;
26686;SDS011;14298;50.900;4.648;2022-09-27T15:13:46;5.00;;;1.53;;
26686;SDS011;14298;50.900;4.648;2022-09-27T15:16:19;7.07;;;1.90;;
26686;SDS011;14298;50.900;4.648;2022-09-27T15:19:36;12.90;;;3.10;;
26686;SDS011;14298;50.900;4.648;2022-09-27T15:24:00;7.67;;;2.87;;
26686;SDS011;14298;50.900;4.648;2022-09-27T15:26:34;5.43;;;2.30;;
26686;SDS011;14298;50.900;4.648;2022-09-27T15:29:19;6.10;;;2.00;;
26686;SDS011;14298;50.900;4.648;2022-09-27T15:31:57;8.13;;;2.30;;
26686;SDS011;14298;50.900;4.648;2022-09-27T15:34:30;9.90;;;2.23;;
26686;SDS011;14298;50.900;4.648;2022-09-27T15:37:00;5.43;;;2.20;;
26686;SDS011;14298;50.900;4.648;2022-09-27T15:39:32;9.27;;;2.30;;
26686;SDS011;14298;50.900;4.648;2022-09-27T15:42:09;8.03;;;2.50;;
26686;SDS011;14298;50.900;4.648;2022-09-27T15:44:50;5.80;;;2.80;;
26686;SDS011;14298;50.900;4.648;2022-09-27T15:52:55;8.73;;;3.97;;
26686;SDS011;14298;50.900;4.648;2022-09-27T15:55:27;6.93;;;3.63;;
26686;SDS011;14298;50.900;4.648;2022-09-27T15:58:00;6.80;;;3.70;;
26686;SDS011;14298;50.900;4.648;2022-09-27T16:00:31;7.43;;;3.30;;
26686;SDS011;14298;50.900;4.648;2022-09-27T16:03:00;7.57;;;3.33;;
26686;SDS011;14298;50.900;4.648;2022-09-27T16:05:29;6.90;;;3.43;;
26686;SDS011;14298;50.900;4.648;2022-09-27T16:07:58;5.53;;;2.57;;
26686;SDS011;14298;50.900;4.648;2022-09-27T16:10:35;9.67;;;3.70;;
26686;SDS011;14298;50.900;4.648;2022-09-27T16:13:04;9.40;;;3.63;;
26686;SDS011;14298;50.900;4.648;2022-09-27T16:15:32;8.97;;;3.60;;
26686;SDS011;14298;50.900;4.648;2022-09-27T16:18:02;9.73;;;3.57;;
26686;SDS011;14298;50.900;4.648;2022-09-27T16:23:18;5.40;;;2.50;;
26686;SDS011;14298;50.900;4.648;2022-09-27T16:25:47;5.30;;;2.13;;
26686;SDS011;14298;50.900;4.648;2022-09-27T16:28:15;4.33;;;2.20;;
26686;SDS011;14298;50.900;4.648;2022-09-27T16:30:43;5.50;;;2.00;;
26686;SDS011;14298;50.900;4.648;2022-09-27T16:33:13;4.07;;;2.17;;
26686;SDS011;14298;50.900;4.648;2022-09-27T16:35:41;6.63;;;2.57;;
26686;SDS011;14298;50.900;4.648;2022-09-27T16:38:10;7.97;;;2.33;;
26686;SDS011;14298;50.900;4.648;2022-09-27T16:40:38;3.53;;;2.10;;
26686;SDS011;14298;50.900;4.648;2022-09-27T16:43:06;5.77;;;2.30;;
26686;SDS011;14298;50.900;4.648;2022-09-27T16:45:35;7.23;;;2.97;;
26686;SDS011;14298;50.900;4.648;2022-09-27T16:48:03;8.57;;;2.87;;
26686;SDS011;14298;50.900;4.648;2022-09-27T16:50:31;4.60;;;2.80;;
26686;SDS011;14298;50.900;4.648;2022-09-27T16:53:18;8.17;;;3.40;;
26686;SDS011;14298;50.900;4.648;2022-09-27T16:55:46;3.37;;;2.10;;
26686;SDS011;14298;50.900;4.648;2022-09-27T16:58:14;8.13;;;3.90;;
26686;SDS011;14298;50.900;4.648;2022-09-27T17:00:42;11.13;;;3.80;;
26686;SDS011;14298;50.900;4.648;2022-09-27T17:03:11;9.50;;;3.60;;
26686;SDS011;14298;50.900;4.648;2022-09-27T17:05:39;7.87;;;3.50;;
26686;SDS011;14298;50.900;4.648;2022-09-27T17:08:07;15.60;;;7.57;;
26686;SDS011;14298;50.900;4.648;2022-09-27T17:10:36;32.60;;;14.13;;
26686;SDS011;14298;50.900;4.648;2022-09-27T17:13:04;8.60;;;3.30;;
26686;SDS011;14298;50.900;4.648;2022-09-27T17:15:32;6.17;;;3.10;;
26686;SDS011;14298;50.900;4.648;2022-09-27T17:18:02;7.80;;;2.93;;
26686;SDS011;14298;50.900;4.648;2022-09-27T17:20:31;6.27;;;3.07;;
26686;SDS011;14298;50.900;4.648;2022-09-27T17:22:59;7.47;;;3.90;;
26686;SDS011;14298;50.900;4.648;2022-09-27T17:25:27;8.10;;;3.80;;
26686;SDS011;14298;50.900;4.648;2022-09-27T17:27:56;7.20;;;3.37;;
26686;SDS011;14298;50.900;4.648;2022-09-27T17:30:24;6.80;;;3.33;;
26686;SDS011;14298;50.900;4.648;2022-09-27T17:32:52;9.60;;;4.57;;
26686;SDS011;14298;50.900;4.648;2022-09-27T17:35:21;10.40;;;4.60;;
26686;SDS011;14298;50.900;4.648;2022-09-27T17:37:49;8.47;;;3.80;;
26686;SDS011;14298;50.900;4.648;2022-09-27T17:40:17;9.87;;;4.00;;
26686;SDS011;14298;50.900;4.648;2022-09-27T17:42:46;7.10;;;3.23;;